createdAt,value
2023-07-26T00:01:05.681Z,65.47
2023-07-26T00:03:33.742Z,59.45
2023-07-26T00:06:02.953Z,53.83
2023-07-26T00:08:31.185Z,60.77
2023-07-26T00:11:01.249Z,55.67
2023-07-26T00:13:29.250Z,45.85
2023-07-26T00:15:57.248Z,44.58
2023-07-26T00:18:25.398Z,43.33
2023-07-26T00:20:53.400Z,42.33
2023-07-26T00:23:21.800Z,41.70
2023-07-26T00:25:49.785Z,39.28
2023-07-26T00:28:17.730Z,41.85
2023-07-26T00:30:45.663Z,42.97
2023-07-26T00:33:13.708Z,45.90
2023-07-26T00:35:43.078Z,39.63
2023-07-26T00:38:11.653Z,45.55
2023-07-26T00:40:41.108Z,46.45
2023-07-26T00:43:08.927Z,40.42
2023-07-26T00:45:40.382Z,37.97
2023-07-26T00:48:09.428Z,49.63
2023-07-26T00:50:42.071Z,45.97
2023-07-26T00:53:10.309Z,47.33
2023-07-26T00:55:38.161Z,48.47
2023-07-26T00:58:06.475Z,43.93
2023-07-26T01:00:34.550Z,44.05
2023-07-26T01:03:02.510Z,42.92
2023-07-26T01:05:40.737Z,49.50
2023-07-26T01:08:15.699Z,45.05
2023-07-26T01:11:03.802Z,40.63
2023-07-26T01:13:55.550Z,49.40
2023-07-26T01:16:23.988Z,41.50
2023-07-26T01:18:51.981Z,49.92
2023-07-26T01:21:20.031Z,44.05
2023-07-26T01:23:48.004Z,48.77
2023-07-26T01:26:16.082Z,41.30
2023-07-26T01:28:44.068Z,41.92
2023-07-26T01:31:13.151Z,45.00
2023-07-26T01:33:42.806Z,44.95
2023-07-26T01:36:12.351Z,44.93
2023-07-26T01:38:40.900Z,39.80
2023-07-26T01:41:09.330Z,41.38
2023-07-26T01:43:38.971Z,38.78
2023-07-26T01:46:07.963Z,36.58
2023-07-26T01:48:36.776Z,37.37
2023-07-26T01:51:04.847Z,38.38
2023-07-26T01:53:32.883Z,47.08
2023-07-26T01:56:04.429Z,40.47
2023-07-26T01:58:32.713Z,37.92
2023-07-26T02:01:01.657Z,39.60
2023-07-26T02:03:29.945Z,43.15
2023-07-26T02:05:57.805Z,38.25
2023-07-26T02:08:26.333Z,35.58
2023-07-26T02:10:54.268Z,42.03
2023-07-26T02:13:22.211Z,37.03
2023-07-26T02:15:50.283Z,50.97
2023-07-26T02:18:18.404Z,36.47
2023-07-26T02:20:46.279Z,38.70
2023-07-26T02:23:14.449Z,37.75
2023-07-26T02:25:42.342Z,38.60
2023-07-26T02:28:11.198Z,41.83
2023-07-26T02:30:39.173Z,45.25
2023-07-26T02:33:07.215Z,39.90
2023-07-26T02:35:35.149Z,40.05
2023-07-26T02:38:05.250Z,35.20
2023-07-26T02:40:33.335Z,45.03
2023-07-26T02:43:01.259Z,43.63
2023-07-26T02:45:30.078Z,45.10
2023-07-26T02:47:58.742Z,49.53
2023-07-26T02:50:26.730Z,50.07
2023-07-26T02:52:54.670Z,44.72
2023-07-26T02:55:22.633Z,55.88
2023-07-26T02:57:50.712Z,53.90
2023-07-26T03:00:18.853Z,39.95
2023-07-26T03:02:46.924Z,39.93
2023-07-26T03:05:15.161Z,36.38
2023-07-26T03:07:43.118Z,37.33
2023-07-26T03:10:11.531Z,40.92
2023-07-26T03:12:39.494Z,40.65
2023-07-26T03:15:08.020Z,39.37
2023-07-26T03:17:36.085Z,35.30
2023-07-26T03:20:04.784Z,37.25
2023-07-26T03:22:33.483Z,32.72
2023-07-26T03:25:01.547Z,31.27
2023-07-26T03:27:29.575Z,46.60
2023-07-26T03:29:57.565Z,69.45
2023-07-26T03:32:25.658Z,73.38
2023-07-26T03:34:53.618Z,71.55
2023-07-26T03:37:21.638Z,71.70
2023-07-26T03:39:49.791Z,68.10
2023-07-26T03:42:17.991Z,65.15
2023-07-26T03:44:46.044Z,57.28
2023-07-26T03:47:14.040Z,61.97
2023-07-26T03:49:41.997Z,56.22
2023-07-26T03:52:10.052Z,55.07
2023-07-26T03:54:38.155Z,58.33
2023-07-26T03:57:06.739Z,40.97
2023-07-26T03:59:35.040Z,35.22
2023-07-26T04:02:03.168Z,29.88
2023-07-26T04:04:31.280Z,34.40
2023-07-26T04:06:59.295Z,29.17
2023-07-26T04:09:27.596Z,28.73
2023-07-26T04:11:59.120Z,30.58
2023-07-26T04:14:27.272Z,29.00
2023-07-26T04:16:55.175Z,29.43
2023-07-26T04:19:23.304Z,43.67
2023-07-26T04:21:51.292Z,42.85
2023-07-26T04:24:19.510Z,42.50
2023-07-26T04:26:47.581Z,39.20
2023-07-26T04:29:15.696Z,41.17
2023-07-26T04:31:43.814Z,41.63
2023-07-26T04:34:14.014Z,38.03
2023-07-26T04:36:42.855Z,39.08
2023-07-26T04:39:11.083Z,39.65
2023-07-26T04:41:39.233Z,40.27
2023-07-26T04:44:07.234Z,41.08
2023-07-26T04:46:35.558Z,41.15
2023-07-26T04:49:04.286Z,43.70
2023-07-26T04:51:32.445Z,44.63
2023-07-26T04:54:03.675Z,46.37
2023-07-26T04:56:33.057Z,44.83
2023-07-26T04:59:01.330Z,40.55
2023-07-26T05:01:29.321Z,38.60
2023-07-26T05:03:57.340Z,41.80
2023-07-26T05:06:28.859Z,51.47
2023-07-26T05:08:57.094Z,44.85
2023-07-26T05:11:25.084Z,39.53
2023-07-26T05:13:53.576Z,38.75
2023-07-26T05:16:21.738Z,36.95
2023-07-26T05:18:49.892Z,34.13
2023-07-26T05:21:17.934Z,37.78
2023-07-26T05:23:45.981Z,39.35
2023-07-26T05:26:13.963Z,44.78
2023-07-26T05:28:41.957Z,42.15
2023-07-26T05:31:09.986Z,47.00
2023-07-26T05:33:37.984Z,52.53
2023-07-26T05:36:07.896Z,47.90
2023-07-26T05:38:35.981Z,41.35
2023-07-26T05:41:05.561Z,40.65
2023-07-26T05:43:34.384Z,45.67
2023-07-26T05:46:03.771Z,39.08
2023-07-26T05:48:32.587Z,38.35
2023-07-26T05:51:00.667Z,38.75
2023-07-26T05:53:28.560Z,38.42
2023-07-26T05:55:56.555Z,34.17
2023-07-26T05:58:24.564Z,32.55
2023-07-26T06:00:52.535Z,33.15
2023-07-26T06:03:23.956Z,34.67
2023-07-26T06:05:52.339Z,31.45
2023-07-26T06:08:20.632Z,30.40
2023-07-26T06:10:48.541Z,32.25
2023-07-26T06:13:17.612Z,34.15
2023-07-26T06:15:45.676Z,28.38
2023-07-26T06:18:13.650Z,34.35
2023-07-26T06:20:41.718Z,37.50
2023-07-26T06:23:09.750Z,34.05
2023-07-26T06:25:37.855Z,34.20
2023-07-26T06:28:05.905Z,35.08
2023-07-26T06:30:34.453Z,31.85
2023-07-26T06:33:03.242Z,34.65
2023-07-26T06:35:32.845Z,31.93
2023-07-26T06:38:00.770Z,40.97
2023-07-26T06:40:28.609Z,39.17
2023-07-26T06:42:56.614Z,32.20
2023-07-26T06:45:24.546Z,32.38
2023-07-26T06:47:52.713Z,38.63
2023-07-26T06:50:20.986Z,37.50
2023-07-26T06:52:50.089Z,33.65
2023-07-26T06:55:18.013Z,31.80
2023-07-26T06:57:46.099Z,32.53
2023-07-26T07:00:17.745Z,36.97
2023-07-26T07:02:47.163Z,26.58
2023-07-26T07:05:16.159Z,35.08
2023-07-26T07:07:44.458Z,35.92
2023-07-26T07:10:12.493Z,31.17
2023-07-26T07:12:40.474Z,32.30
2023-07-26T07:15:09.966Z,27.93
2023-07-26T07:17:37.980Z,25.98
2023-07-26T07:20:08.715Z,28.42
2023-07-26T07:22:37.245Z,28.52
2023-07-26T07:25:06.931Z,31.33
2023-07-26T07:27:35.040Z,33.60
2023-07-26T07:30:03.641Z,30.42
2023-07-26T07:32:31.693Z,30.88
2023-07-26T07:34:59.723Z,28.95
2023-07-26T07:37:28.582Z,26.27
2023-07-26T07:39:56.705Z,36.73
2023-07-26T07:42:24.793Z,26.40
2023-07-26T07:44:54.479Z,28.13
2023-07-26T07:47:23.167Z,26.42
2023-07-26T07:49:51.119Z,31.65
2023-07-26T07:52:20.949Z,26.67
2023-07-26T07:54:49.074Z,28.80
2023-07-26T07:57:19.043Z,30.13
2023-07-26T07:59:47.225Z,29.55
2023-07-26T08:02:15.113Z,26.75
2023-07-26T08:04:43.426Z,29.27
2023-07-26T08:07:11.834Z,24.48
2023-07-26T08:09:42.368Z,25.25
2023-07-26T08:12:10.573Z,26.90
2023-07-26T08:14:38.466Z,25.77
2023-07-26T08:17:06.823Z,25.27
2023-07-26T08:19:34.827Z,27.80
2023-07-26T08:22:02.857Z,24.75
2023-07-26T08:24:31.183Z,23.30
2023-07-26T08:27:00.524Z,21.67
2023-07-26T08:29:28.425Z,25.03
2023-07-26T08:31:56.557Z,22.20
2023-07-26T08:34:24.585Z,24.95
2023-07-26T08:36:52.624Z,23.45
2023-07-26T08:39:33.751Z,24.05
2023-07-26T08:42:05.964Z,20.57
2023-07-26T08:44:35.321Z,21.77
2023-07-26T08:47:06.275Z,19.83
2023-07-26T08:49:34.771Z,14.90
2023-07-26T08:52:05.024Z,18.08
2023-07-26T08:54:34.241Z,18.87
2023-07-26T08:57:02.527Z,19.58
2023-07-26T08:59:31.476Z,18.10
2023-07-26T09:02:04.180Z,13.68
2023-07-26T09:04:33.746Z,11.90
2023-07-26T09:07:08.254Z,23.60
2023-07-26T09:09:37.766Z,24.52
2023-07-26T09:12:06.300Z,22.67
2023-07-26T09:14:35.432Z,26.40
2023-07-26T09:17:05.752Z,17.77
2023-07-26T09:19:39.970Z,23.17
2023-07-26T09:22:10.746Z,23.50
2023-07-26T09:24:42.632Z,20.48
2023-07-26T09:27:13.499Z,23.63
2023-07-26T09:29:43.195Z,19.55
2023-07-26T09:32:11.379Z,25.03
2023-07-26T09:34:41.779Z,18.83
2023-07-26T09:37:24.715Z,20.48
2023-07-26T09:39:52.977Z,19.38
2023-07-26T09:42:21.177Z,21.30
2023-07-26T09:44:49.585Z,22.40
2023-07-26T09:47:17.854Z,19.05
2023-07-26T09:50:16.891Z,18.48
2023-07-26T09:52:44.446Z,21.55
2023-07-26T09:55:20.969Z,16.42
2023-07-26T09:57:52.281Z,21.93
2023-07-26T10:00:21.925Z,21.33
2023-07-26T10:02:58.401Z,19.50
2023-07-26T10:05:27.740Z,25.70
2023-07-26T10:07:57.842Z,21.83
2023-07-26T10:10:30.037Z,24.33
2023-07-26T10:13:00.374Z,22.08
2023-07-26T10:15:31.872Z,23.23
2023-07-26T10:18:00.809Z,18.63
2023-07-26T10:20:29.156Z,17.45
2023-07-26T10:23:04.011Z,21.23
2023-07-26T10:25:34.443Z,22.65
2023-07-26T10:28:06.169Z,20.52
2023-07-26T10:30:34.387Z,16.30
2023-07-26T10:33:02.751Z,20.10
2023-07-26T10:35:32.873Z,16.73
2023-07-26T10:38:04.103Z,23.52
2023-07-26T10:40:37.752Z,17.98
2023-07-26T10:43:18.748Z,20.67
2023-07-26T10:45:47.669Z,21.65
2023-07-26T10:48:32.426Z,20.10
2023-07-26T10:51:00.878Z,19.55
2023-07-26T10:53:38.487Z,14.50
2023-07-26T10:56:10.323Z,18.73
2023-07-26T10:58:48.666Z,16.40
2023-07-26T11:01:46.476Z,14.87
2023-07-26T11:04:20.534Z,19.00
2023-07-26T11:07:00.223Z,14.07
2023-07-26T11:09:29.352Z,18.00
2023-07-26T11:11:58.736Z,17.00
2023-07-26T11:14:28.647Z,18.80
2023-07-26T11:16:59.205Z,16.17
2023-07-26T11:19:28.865Z,16.50
2023-07-26T11:22:08.855Z,14.73
2023-07-26T11:24:36.999Z,15.27
2023-07-26T11:27:06.982Z,13.67
2023-07-26T11:29:35.495Z,17.60
2023-07-26T11:32:05.152Z,17.33
2023-07-26T11:34:33.357Z,14.57
2023-07-26T11:37:13.866Z,15.82
2023-07-26T11:39:41.980Z,10.10
2023-07-26T11:42:10.380Z,16.77
2023-07-26T11:44:38.471Z,11.75
2023-07-26T11:47:06.839Z,14.15
2023-07-26T11:49:35.791Z,16.67
2023-07-26T11:52:03.857Z,12.73
2023-07-26T11:54:32.394Z,13.13
2023-07-26T11:57:00.948Z,14.23
2023-07-26T11:59:30.083Z,18.00
2023-07-26T12:01:58.698Z,12.38
2023-07-26T12:04:26.767Z,14.43
2023-07-26T12:06:55.314Z,15.18
2023-07-26T12:09:23.691Z,14.57
2023-07-26T12:11:56.404Z,15.55
2023-07-26T12:14:25.124Z,20.42
2023-07-26T12:16:55.061Z,13.97
2023-07-26T12:19:27.102Z,17.70
2023-07-26T12:21:55.174Z,14.35
2023-07-26T12:24:24.771Z,14.35
2023-07-26T12:26:53.381Z,16.90
2023-07-26T12:29:29.405Z,16.67
2023-07-26T12:32:05.788Z,15.02
2023-07-26T12:34:36.727Z,16.67
2023-07-26T12:37:05.041Z,14.52
2023-07-26T12:39:33.135Z,15.05
2023-07-26T12:42:01.064Z,13.13
2023-07-26T12:44:29.354Z,14.68
2023-07-26T12:47:26.895Z,16.45
2023-07-26T12:49:45.364Z,13.45
2023-07-26T12:52:13.302Z,13.18
2023-07-26T12:54:41.417Z,12.97
2023-07-26T12:57:09.481Z,16.85
2023-07-26T12:59:37.634Z,14.15
2023-07-26T13:02:06.204Z,13.85
2023-07-26T13:04:34.400Z,13.50
2023-07-26T13:07:05.221Z,16.43
2023-07-26T13:09:33.262Z,14.38
2023-07-26T13:12:01.222Z,17.27
2023-07-26T13:14:29.215Z,15.18
2023-07-26T13:16:57.158Z,15.75
2023-07-26T13:19:25.181Z,16.60
2023-07-26T13:21:53.191Z,19.15
2023-07-26T13:24:21.399Z,15.32
2023-07-26T13:26:49.619Z,14.05
2023-07-26T13:29:17.734Z,13.32
2023-07-26T13:31:46.102Z,12.07
2023-07-26T13:34:14.078Z,13.23
2023-07-26T13:36:41.869Z,13.35
2023-07-26T13:39:14.233Z,13.30
2023-07-26T13:41:42.293Z,14.18
2023-07-26T13:44:10.473Z,12.07
2023-07-26T13:46:39.188Z,15.70
2023-07-26T13:49:07.868Z,16.58
2023-07-26T13:51:36.111Z,13.38
2023-07-26T13:54:04.212Z,16.05
2023-07-26T13:56:32.339Z,14.17
2023-07-26T13:59:01.313Z,16.13
2023-07-26T14:01:29.627Z,12.90
2023-07-26T14:03:57.533Z,16.05
2023-07-26T14:06:29.832Z,12.25
2023-07-26T14:08:58.858Z,16.73
2023-07-26T14:11:26.902Z,12.63
2023-07-26T14:13:57.905Z,12.27
2023-07-26T14:16:25.876Z,13.40
2023-07-26T14:18:55.094Z,12.77
2023-07-26T14:21:26.439Z,10.57
2023-07-26T14:23:54.329Z,15.48
2023-07-26T14:26:22.190Z,12.25
2023-07-26T14:28:50.201Z,14.00
2023-07-26T14:31:18.333Z,13.50
2023-07-26T14:33:47.106Z,13.43
2023-07-26T14:36:15.223Z,16.75
2023-07-26T14:38:44.333Z,15.90
2023-07-26T14:41:13.419Z,16.88
2023-07-26T14:43:43.772Z,16.55
2023-07-26T14:46:12.052Z,12.50
2023-07-26T14:48:40.525Z,11.82
2023-07-26T14:51:09.178Z,15.20
2023-07-26T14:53:38.177Z,13.43
2023-07-26T14:56:06.656Z,14.02
2023-07-26T14:58:34.598Z,10.77
2023-07-26T15:01:03.541Z,16.67
2023-07-26T15:03:32.053Z,19.40
2023-07-26T15:06:00.513Z,17.50
2023-07-26T15:08:28.816Z,17.42
2023-07-26T15:10:56.876Z,14.00
2023-07-26T15:13:24.954Z,19.48
2023-07-26T15:15:52.978Z,13.80
2023-07-26T15:18:21.172Z,24.90
2023-07-26T15:20:49.237Z,19.08
2023-07-26T15:25:48.011Z,11.02
2023-07-26T15:28:16.078Z,13.25
2023-07-26T15:30:44.758Z,13.07
2023-07-26T15:33:14.425Z,9.75
2023-07-26T15:35:44.579Z,11.27
2023-07-26T15:38:12.663Z,13.77
2023-07-26T15:48:17.199Z,8.60
2023-07-26T15:53:16.241Z,8.70
2023-07-26T15:55:44.562Z,10.85
2023-07-26T15:58:14.027Z,12.02
2023-07-26T16:00:42.403Z,9.47
2023-07-26T16:03:11.004Z,12.10
2023-07-26T16:05:39.731Z,10.02
2023-07-26T16:08:11.800Z,10.32
2023-07-26T16:10:42.633Z,10.40
2023-07-26T16:13:11.291Z,8.47
2023-07-26T16:16:23.381Z,6.72
2023-07-26T16:18:30.079Z,8.50
2023-07-26T16:23:30.695Z,6.45
2023-07-26T16:25:58.952Z,8.80
2023-07-26T16:28:27.112Z,8.32
2023-07-26T16:30:55.363Z,11.98
2023-07-26T16:33:23.587Z,14.63
2023-07-26T16:35:52.537Z,14.73
2023-07-26T16:38:21.335Z,12.07
2023-07-26T16:40:49.446Z,9.82
2023-07-26T16:43:18.295Z,10.38
2023-07-26T16:45:46.879Z,11.50
2023-07-26T16:48:15.430Z,7.82
2023-07-26T16:50:43.578Z,10.53
2023-07-26T16:53:12.403Z,9.43
2023-07-26T16:55:40.313Z,10.88
2023-07-26T16:58:08.510Z,7.22
2023-07-26T17:00:36.940Z,9.23
2023-07-26T17:03:05.647Z,6.93
2023-07-26T17:05:36.224Z,7.75
2023-07-26T17:08:04.530Z,6.22
2023-07-26T17:10:33.233Z,8.80
2023-07-26T17:13:01.659Z,6.18
2023-07-26T17:15:32.278Z,5.07
2023-07-26T17:18:00.609Z,6.93
2023-07-26T17:20:28.577Z,7.93
2023-07-26T17:22:56.817Z,7.03
2023-07-26T17:25:25.189Z,7.15
2023-07-26T17:27:53.938Z,7.88
2023-07-26T17:30:24.036Z,6.50
2023-07-26T17:32:52.180Z,6.07
2023-07-26T17:35:20.177Z,8.95
2023-07-26T17:37:48.265Z,4.65
2023-07-26T17:40:16.356Z,7.72
2023-07-26T17:42:44.624Z,7.03
2023-07-26T17:45:12.610Z,6.32
2023-07-26T17:47:40.858Z,10.38
2023-07-26T17:50:09.004Z,7.28
2023-07-26T17:52:37.170Z,9.25
2023-07-26T17:55:06.122Z,6.87
2023-07-26T17:57:34.258Z,8.40
2023-07-26T18:00:06.947Z,10.20
2023-07-26T18:02:35.122Z,6.63
2023-07-26T18:05:03.239Z,7.55
2023-07-26T18:07:31.665Z,6.93
2023-07-26T18:09:59.629Z,7.03
2023-07-26T18:12:27.941Z,8.13
2023-07-26T18:14:55.998Z,10.38
2023-07-26T18:17:24.315Z,10.35
2023-07-26T18:19:52.330Z,6.73
2023-07-26T18:22:20.729Z,7.38
2023-07-26T18:24:50.962Z,11.02
2023-07-26T18:27:19.192Z,9.70
2023-07-26T18:29:47.931Z,9.57
2023-07-26T18:32:16.867Z,10.97
2023-07-26T18:34:45.113Z,7.32
2023-07-26T18:37:13.215Z,8.93
2023-07-26T18:39:41.000Z,7.10
2023-07-26T18:42:09.252Z,11.05
2023-07-26T18:44:38.188Z,14.02
2023-07-26T18:47:09.703Z,7.07
2023-07-26T18:49:38.636Z,9.93
2023-07-26T18:52:07.171Z,8.60
2023-07-26T18:54:35.293Z,8.43
2023-07-26T18:57:03.384Z,10.80
2023-07-26T18:59:31.486Z,12.67
2023-07-26T19:01:59.657Z,6.22
2023-07-26T19:04:27.946Z,8.52
2023-07-26T19:06:55.937Z,7.18
2023-07-26T19:09:24.386Z,6.35
2023-07-26T19:11:52.452Z,8.37
2023-07-26T19:14:20.885Z,7.03
2023-07-26T19:16:48.981Z,11.00
2023-07-26T19:19:19.980Z,8.57
2023-07-26T19:21:48.031Z,7.15
2023-07-26T19:24:16.446Z,7.00
2023-07-26T19:26:44.757Z,5.05
2023-07-26T19:29:12.703Z,8.95
2023-07-26T19:31:41.326Z,5.57
2023-07-26T19:34:09.686Z,6.07
2023-07-26T19:36:37.834Z,7.67
2023-07-26T19:39:05.953Z,6.35
2023-07-26T19:41:34.305Z,7.03
2023-07-26T19:44:02.868Z,8.40
2023-07-26T19:46:30.990Z,8.20
2023-07-26T19:48:59.002Z,6.03
2023-07-26T19:51:28.150Z,9.98
2023-07-26T19:53:56.182Z,8.63
2023-07-26T19:56:24.600Z,6.40
2023-07-26T19:58:52.549Z,9.07
2023-07-26T20:01:22.281Z,7.30
2023-07-26T20:03:50.697Z,7.50
2023-07-26T20:06:19.023Z,9.40
2023-07-26T20:08:47.458Z,7.40
2023-07-26T20:11:15.518Z,6.93
2023-07-26T20:13:44.536Z,8.57
2023-07-26T20:16:12.638Z,6.80
2023-07-26T20:18:41.164Z,7.40
2023-07-26T20:21:09.810Z,10.15
2023-07-26T20:23:37.927Z,6.20
2023-07-26T20:26:06.108Z,6.70
2023-07-26T20:28:34.152Z,6.13
2023-07-26T20:31:05.338Z,5.40
2023-07-26T20:33:33.598Z,4.30
2023-07-26T20:36:04.916Z,7.88
2023-07-26T20:38:32.863Z,6.30
2023-07-26T20:41:00.847Z,6.63
2023-07-26T20:43:28.992Z,7.18
2023-07-26T20:45:57.140Z,8.85
2023-07-26T20:48:25.313Z,8.50
2023-07-26T20:50:54.639Z,13.30
2023-07-26T20:53:23.790Z,9.40
2023-07-26T20:55:52.951Z,7.07
2023-07-26T20:58:20.994Z,11.07
2023-07-26T21:00:52.603Z,15.15
2023-07-26T21:03:21.370Z,9.60
2023-07-26T21:05:49.710Z,9.83
2023-07-26T21:08:19.026Z,8.25
2023-07-26T21:10:47.319Z,10.88
2023-07-26T21:13:15.810Z,9.98
2023-07-26T21:15:43.813Z,12.63
2023-07-26T21:18:12.026Z,10.30
2023-07-26T21:20:41.896Z,13.57
2023-07-26T21:23:10.395Z,6.97
2023-07-26T21:25:38.341Z,6.13
2023-07-26T21:28:06.383Z,6.60
2023-07-26T21:30:34.498Z,6.30
2023-07-26T21:33:02.573Z,6.10
2023-07-26T21:35:30.736Z,6.80
2023-07-26T21:37:59.318Z,8.65
2023-07-26T21:40:27.132Z,11.27
2023-07-26T21:42:55.122Z,10.00
2023-07-26T21:45:23.401Z,12.10
2023-07-26T21:47:51.783Z,11.32
2023-07-26T21:50:19.916Z,14.68
2023-07-26T21:52:48.360Z,20.95
2023-07-26T21:55:16.420Z,23.10
2023-07-26T21:57:44.540Z,23.70
2023-07-26T22:00:13.462Z,17.83
2023-07-26T22:02:43.086Z,16.77
2023-07-26T22:05:12.036Z,6.95
2023-07-26T22:07:40.065Z,6.70
2023-07-26T22:10:10.061Z,10.03
2023-07-26T22:12:40.127Z,8.63
2023-07-26T22:15:10.304Z,6.95
2023-07-26T22:17:40.542Z,18.08
2023-07-26T22:20:12.581Z,20.73
2023-07-26T22:22:42.321Z,19.53
2023-07-26T22:25:14.606Z,13.73
2023-07-26T22:27:44.590Z,13.13
2023-07-26T22:30:14.074Z,12.68
2023-07-26T22:32:43.473Z,7.15
2023-07-26T22:35:13.714Z,11.07
2023-07-26T22:37:45.789Z,12.80
2023-07-26T22:40:15.732Z,12.52
2023-07-26T22:42:43.878Z,11.50
2023-07-26T22:45:15.522Z,13.10
2023-07-26T22:47:45.306Z,12.27
2023-07-26T22:50:13.751Z,13.57
2023-07-26T22:52:43.196Z,11.27
2023-07-26T22:55:11.814Z,11.07
2023-07-26T22:57:39.808Z,11.32
2023-07-26T23:00:09.233Z,10.23
2023-07-26T23:02:37.494Z,9.43
2023-07-26T23:05:06.620Z,8.32
2023-07-26T23:07:34.564Z,10.57
2023-07-26T23:10:02.758Z,8.02
2023-07-26T23:12:32.685Z,11.65
2023-07-26T23:15:00.945Z,9.43
2023-07-26T23:17:28.884Z,9.57
2023-07-26T23:19:57.097Z,12.35
2023-07-26T23:22:26.357Z,8.68
2023-07-26T23:24:54.535Z,11.10
2023-07-26T23:27:22.549Z,10.23
2023-07-26T23:29:51.143Z,9.25
2023-07-26T23:32:18.887Z,12.10
2023-07-26T23:34:47.257Z,11.52
2023-07-26T23:37:15.113Z,8.50
2023-07-26T23:39:43.183Z,10.73
2023-07-26T23:42:14.390Z,10.77
2023-07-26T23:44:42.455Z,10.30
2023-07-26T23:47:10.693Z,11.32
2023-07-26T23:49:39.271Z,13.55
2023-07-26T23:52:07.565Z,10.25
2023-07-26T23:54:35.514Z,12.43
2023-07-26T23:57:04.138Z,9.40
2023-07-26T23:59:32.341Z,9.57
